Saint Xavier, MT (59075)

4:19 AM MDT on July 30, 2014 (GMT -0600)
Billings Logan International (KBIL) Elev 3570 ft | 45.81 °N, 108.54 °W | Change Station

Current weather conditions updated 26 minutes ago

Clear
Clear
66 °F
Feels Like 66 °F
N
12
Wind Variable Wind from SW

Today is forecast to be nearly the same temperature as yesterday.

Today
High -- | Low -- °F
--% Chance of Precip.
Yesterday
High -- | Low -- °F
Precip. -- in
5:53 AM 8:41 PM
Waxing Crescent, 11% visible
Pressure 30.12 in
Visibility 10.0 miles
Clouds Clear
Dew Point 54 °F
Humidity 65%
Rainfall 0.00 in
Snow Depth Not available.
UV 0 out of 12
Pollen 6.10 out of 12
Air Quality Not available.
Flu Activity Not available.
METAR KBIL 300953Z 23010KT 10SM CLR 19/12 A3022 RMK AO2 SLP199 T01890122

More Conditions Fewer Conditions

Pressure 30.12 in
Visibility 10.0 miles
Clouds Clear
Dew Point 54 °F
Humidity 65%
Rainfall 0.00 in
Snow Depth Not available.
UV 0 out of 12
Pollen 6.10 out of 12
Air Quality Not available.
Flu Activity Not available.
METAR KBIL 300953Z 23010KT 10SM CLR 19/12 A3022 RMK AO2 SLP199 T01890122

More Conditions Fewer Conditions

10-Day Weather Forecast

Almanac

Astronomy

Jul. 30, 2014 Rise Set
Actual Time 5:53 AM MDT 8:41 PM MDT
Civil Twilight 5:18 AM MDT 9:16 PM MDT
Nautical Twilight 4:35 AM MDT 9:59 PM MDT
Astronomical Twilight 3:43 AM MDT 10:50 PM MDT
Moon 9:40 AM MDT 10:11 PM MDT
Length of Visible Light 15h 57m
Length of Day
14h 48m
Tomorrow will be 2m 25s shorter.
Waxing Crescent, 11% of the Moon is Illuminated
Today
Waxing Crescent
Aug 3
First Quarter
Aug 10
Full
Aug 17
Last Quarter
Aug 25
New

Today's Extremes

State Highs State Lows

Community

WunderPhotos

Upload Photos

1,739,032 photos uploaded!

WunderBlogs® & News

Nearby

Snow Depth

Station Depth Elevation
Cole Creek 1 in 7850 ft
Burnt Mountain 0 in 5880 ft
White Mill 1 in 8700 ft
Northeast Entrance 0 in 7350 ft
Monument Peak 0 in 8850 ft

Earthquake Activity

City Distance Mag. Time & Date
No recent earthquake activity has been reported nearby.
Minimum magnitude displayed is 2.5.

Coastal Water Temperatures

Place Temperature
No Stations Reporting

Nearby Weather Stations

Station Location Temp. Dew Point Humidity Wind Precip. Elev Updated Type
RAWS LITTLE BIGHORN MT, Crow Agency, MT 58 °F 48 °F 69% SE  at  8 mph 0.00 in / hr 3196 ft 2:59 AM MDT MADIS

Show More Stations Show Fewer Stations